Terminal Aerodrome Forecast
Issued by NWS

Home | Current Version | Previous Version | Text Only | Print | Product List | Glossary On
Versions: 1 2 3 4 5 6 7 8 9 10 11 12 13 14
000
FTAK31 PAJN 182300
TAFAWG
TAF
PAWG 182329Z 1900/1924 13008KT P6SM VCSH SCT050 BKN070
      TEMPO 1900/1903 13010G20KT
     FM190300 12010KT P6SM SCT100
     FM190900 12007KT P6SM SCT050 BKN070 OVC090
     FM192000 12015G25KT P6SM BKN050 OVC070
      AMD LTD TO CLD VIS AND WIND 1906/1915=

USA.gov is the U.S. government's official web portal to all federal, state and local government web resources and services.